createdAt,value
2022-07-25T00:00:12.708Z,8.68
2022-07-25T00:03:20.104Z,10.72
2022-07-25T00:06:28.439Z,9.15
2022-07-25T00:09:36.314Z,10.55
2022-07-25T00:12:42.585Z,10.35
2022-07-25T00:15:49.884Z,10.45
2022-07-25T00:18:56.133Z,10.63
2022-07-25T00:22:02.087Z,11.63
2022-07-25T00:25:08.869Z,10.78
2022-07-25T00:28:15.030Z,12.18
2022-07-25T00:31:23.172Z,11.43
2022-07-25T00:34:28.784Z,12.40
2022-07-25T00:37:34.866Z,12.47
2022-07-25T00:40:41.120Z,11.53
2022-07-25T00:43:48.310Z,12.05
2022-07-25T00:46:54.655Z,15.90
2022-07-25T00:50:01.665Z,16.52
2022-07-25T00:53:08.248Z,12.73
2022-07-25T00:56:15.852Z,12.37
2022-07-25T00:59:24.153Z,11.63
2022-07-25T01:02:32.201Z,16.77
2022-07-25T01:05:37.801Z,11.57
2022-07-25T01:08:44.584Z,11.68
2022-07-25T01:11:51.155Z,11.43
2022-07-25T01:14:57.539Z,11.30
2022-07-25T01:18:05.423Z,11.57
2022-07-25T01:21:13.330Z,12.82
2022-07-25T01:24:21.225Z,14.00
2022-07-25T01:27:27.307Z,11.65
2022-07-25T01:30:33.892Z,12.73
2022-07-25T01:33:40.145Z,11.30
2022-07-25T01:36:46.828Z,13.40
2022-07-25T01:39:52.783Z,12.18
2022-07-25T01:42:58.838Z,10.80
2022-07-25T01:46:04.748Z,10.08
2022-07-25T01:49:11.788Z,13.05
2022-07-25T01:52:17.749Z,11.48
2022-07-25T01:55:24.866Z,9.73
2022-07-25T01:58:31.860Z,13.10
2022-07-25T02:01:37.919Z,10.60
2022-07-25T02:04:45.085Z,10.98
2022-07-25T02:07:51.852Z,10.35
2022-07-25T02:10:58.091Z,11.93
2022-07-25T02:14:04.230Z,13.05
2022-07-25T02:17:10.684Z,9.68
2022-07-25T02:20:21.013Z,13.08
2022-07-25T02:23:26.990Z,13.53
2022-07-25T02:26:33.310Z,10.85
2022-07-25T02:29:40.608Z,11.20
2022-07-25T02:32:46.261Z,10.20
2022-07-25T02:35:52.428Z,9.30
2022-07-25T02:38:59.097Z,11.18
2022-07-25T02:42:06.139Z,9.53
2022-07-25T02:45:14.011Z,10.25
2022-07-25T02:48:22.110Z,9.90
2022-07-25T02:51:29.221Z,10.32
2022-07-25T02:54:36.982Z,12.55
2022-07-25T02:57:42.444Z,10.98
2022-07-25T03:00:48.603Z,11.00
2022-07-25T03:03:55.628Z,11.83
2022-07-25T03:07:02.472Z,10.15
2022-07-25T03:10:11.492Z,11.90
2022-07-25T03:13:18.526Z,11.03
2022-07-25T03:16:26.009Z,9.80
2022-07-25T03:19:32.034Z,12.65
2022-07-25T03:22:38.318Z,11.68
2022-07-25T03:25:48.014Z,10.15
2022-07-25T03:29:03.353Z,8.28
2022-07-25T03:32:17.962Z,9.25
2022-07-25T03:35:24.064Z,11.03
2022-07-25T03:38:31.975Z,9.25
2022-07-25T03:41:39.670Z,11.85
2022-07-25T03:44:46.372Z,9.78
2022-07-25T03:47:57.531Z,8.65
2022-07-25T03:51:07.549Z,8.63
2022-07-25T03:54:13.716Z,9.48
2022-07-25T03:57:21.252Z,10.43
2022-07-25T04:00:29.136Z,8.50
2022-07-25T04:03:36.939Z,9.53
2022-07-25T04:06:44.208Z,10.35
2022-07-25T04:09:50.996Z,11.45
2022-07-25T04:12:57.463Z,10.95
2022-07-25T04:16:03.132Z,10.68
2022-07-25T04:19:10.939Z,9.20
2022-07-25T04:22:16.270Z,9.60
2022-07-25T04:25:24.661Z,12.05
2022-07-25T04:28:32.596Z,10.58
2022-07-25T04:31:43.737Z,8.88
2022-07-25T04:34:52.086Z,9.43
2022-07-25T04:38:00.445Z,10.63
2022-07-25T04:41:09.857Z,10.93
2022-07-25T04:44:15.810Z,9.73
2022-07-25T04:47:21.799Z,10.70
2022-07-25T04:50:28.806Z,10.10
2022-07-25T04:53:36.454Z,11.55
2022-07-25T04:56:45.082Z,9.83
2022-07-25T04:59:52.180Z,10.35
2022-07-25T05:03:09.043Z,9.83
2022-07-25T05:06:16.294Z,10.43
2022-07-25T05:09:24.935Z,9.48
2022-07-25T05:12:31.368Z,9.73
2022-07-25T05:15:36.627Z,9.53
2022-07-25T05:18:43.144Z,13.58
2022-07-25T05:21:50.087Z,10.25
2022-07-25T05:24:56.217Z,9.50
2022-07-25T05:28:06.480Z,11.50
2022-07-25T05:31:14.786Z,10.63
2022-07-25T05:34:25.389Z,11.28
2022-07-25T05:37:31.126Z,11.03
2022-07-25T05:40:37.293Z,9.43
2022-07-25T05:43:42.635Z,12.33
2022-07-25T05:46:50.337Z,11.25
2022-07-25T05:50:01.470Z,10.63
2022-07-25T05:53:07.141Z,10.90
2022-07-25T05:56:15.291Z,10.10
2022-07-25T05:59:22.886Z,10.28
2022-07-25T06:02:30.623Z,10.65
2022-07-25T06:05:38.031Z,10.15
2022-07-25T06:08:44.034Z,11.88
2022-07-25T06:12:00.577Z,11.63
2022-07-25T06:15:27.456Z,11.73
2022-07-25T06:18:33.999Z,11.15
2022-07-25T06:21:39.875Z,10.25
2022-07-25T06:24:44.972Z,10.45
2022-07-25T06:27:49.469Z,10.58
2022-07-25T06:30:59.622Z,10.23
2022-07-25T06:34:05.724Z,12.68
2022-07-25T06:37:12.751Z,9.78
2022-07-25T06:40:19.747Z,10.25
2022-07-25T06:43:28.850Z,9.13
2022-07-25T06:46:37.610Z,9.78
2022-07-25T06:49:48.887Z,13.20
2022-07-25T06:52:57.107Z,10.72
2022-07-25T06:56:07.494Z,9.70
2022-07-25T06:59:14.724Z,10.15
2022-07-25T07:02:20.112Z,10.60
2022-07-25T07:05:26.357Z,9.80
2022-07-25T07:08:37.134Z,12.28
2022-07-25T07:11:46.566Z,10.75
2022-07-25T07:14:52.910Z,9.78
2022-07-25T07:17:59.369Z,9.30
2022-07-25T07:21:06.393Z,10.55
2022-07-25T07:24:24.421Z,9.13
2022-07-25T07:27:23.279Z,9.45
2022-07-25T07:30:52.063Z,10.38
2022-07-25T07:33:42.370Z,10.43
2022-07-25T07:36:49.287Z,10.72
2022-07-25T07:39:57.685Z,9.95
2022-07-25T07:43:13.451Z,12.03
2022-07-25T07:46:20.856Z,12.28
2022-07-25T07:49:27.609Z,11.68
2022-07-25T07:52:34.428Z,13.00
2022-07-25T07:55:52.686Z,12.20
2022-07-25T07:58:58.779Z,10.03
2022-07-25T08:02:04.936Z,9.75
2022-07-25T08:05:15.320Z,9.50
2022-07-25T08:08:23.128Z,8.33
2022-07-25T08:11:30.783Z,8.78
2022-07-25T08:14:36.283Z,8.30
2022-07-25T08:17:44.641Z,7.83
2022-07-25T08:20:50.461Z,10.35
2022-07-25T08:23:57.106Z,9.28
2022-07-25T08:27:02.976Z,9.88
2022-07-25T08:30:10.236Z,9.45
2022-07-25T08:33:20.079Z,9.30
2022-07-25T08:36:26.288Z,8.70
2022-07-25T08:39:34.420Z,9.00
2022-07-25T08:42:39.815Z,7.90
2022-07-25T08:45:46.554Z,8.63
2022-07-25T08:48:53.053Z,7.37
2022-07-25T08:51:59.411Z,6.78
2022-07-25T08:55:08.354Z,8.03
2022-07-25T08:58:15.367Z,7.00
2022-07-25T09:01:20.937Z,6.65
2022-07-25T09:04:27.357Z,6.80
2022-07-25T09:07:36.303Z,6.87
2022-07-25T09:10:44.107Z,6.70
2022-07-25T09:13:50.636Z,7.15
2022-07-25T09:16:57.636Z,7.17
2022-07-25T09:20:15.339Z,7.00
2022-07-25T09:23:20.037Z,6.40
2022-07-25T09:26:30.265Z,5.97
2022-07-25T09:29:41.153Z,7.45
2022-07-25T09:32:45.609Z,6.45
2022-07-25T09:36:18.335Z,5.80
2022-07-25T09:39:24.329Z,5.87
2022-07-25T09:42:40.732Z,6.80
2022-07-25T09:45:46.870Z,4.55
2022-07-25T09:48:55.931Z,6.20
2022-07-25T09:52:04.993Z,5.37
2022-07-25T09:55:19.788Z,5.53
2022-07-25T09:58:25.364Z,7.43
2022-07-25T10:01:34.845Z,7.75
2022-07-25T10:04:56.147Z,11.97
2022-07-25T10:08:07.314Z,8.15
2022-07-25T10:11:16.670Z,9.55
2022-07-25T10:14:27.574Z,5.78
2022-07-25T10:17:39.100Z,5.50
2022-07-25T10:20:46.519Z,5.12
2022-07-25T10:23:53.153Z,4.53
2022-07-25T10:27:08.842Z,5.65
2022-07-25T10:30:17.219Z,7.47
2022-07-25T10:33:33.357Z,5.33
2022-07-25T10:36:45.809Z,4.97
2022-07-25T10:39:54.013Z,4.58
2022-07-25T10:43:01.045Z,2.40
2022-07-25T10:46:12.923Z,4.37
2022-07-25T10:49:26.301Z,3.25
2022-07-25T10:52:35.712Z,2.98
2022-07-25T10:55:43.060Z,2.92
2022-07-25T10:59:15.992Z,2.42
2022-07-25T11:02:26.602Z,1.70
2022-07-25T11:05:37.763Z,1.80
2022-07-25T11:08:48.511Z,1.65
2022-07-25T11:11:59.031Z,1.67
2022-07-25T11:15:22.600Z,1.02
2022-07-25T11:18:33.052Z,6.40
2022-07-25T11:21:40.643Z,2.30
2022-07-25T11:24:55.916Z,2.92
2022-07-25T11:28:12.903Z,4.95
2022-07-25T11:31:21.641Z,3.47
2022-07-25T11:34:28.057Z,4.78
2022-07-25T11:37:33.559Z,5.97
2022-07-25T11:40:42.812Z,7.83
2022-07-25T11:43:49.196Z,6.95
2022-07-25T11:47:01.944Z,7.60
2022-07-25T11:50:10.069Z,9.30
2022-07-25T11:53:24.276Z,7.35
2022-07-25T11:56:43.019Z,6.05
2022-07-25T11:59:49.000Z,7.72
2022-07-25T12:02:59.764Z,8.15
2022-07-25T12:06:07.509Z,7.10
2022-07-25T12:09:23.884Z,5.58
2022-07-25T12:12:30.451Z,5.53
2022-07-25T12:15:43.541Z,5.10
2022-07-25T12:18:52.583Z,5.37
2022-07-25T12:22:20.845Z,5.37
2022-07-25T12:25:56.469Z,5.08
2022-07-25T12:29:05.811Z,5.10
2022-07-25T12:32:21.320Z,5.20
2022-07-25T12:35:29.825Z,4.92
2022-07-25T12:38:38.083Z,6.80
2022-07-25T12:41:48.725Z,8.33
2022-07-25T12:44:59.474Z,5.80
2022-07-25T12:48:09.970Z,5.95
2022-07-25T12:51:23.141Z,3.35
2022-07-25T12:54:33.976Z,5.70
2022-07-25T12:57:42.441Z,2.50
2022-07-25T13:00:48.538Z,2.45
2022-07-25T13:03:56.308Z,2.08
2022-07-25T13:07:03.828Z,2.27
2022-07-25T13:10:03.007Z,1.62
2022-07-25T13:12:58.714Z,1.62
2022-07-25T13:16:11.113Z,1.42
2022-07-25T13:19:23.126Z,1.87
2022-07-25T13:22:31.544Z,1.55
2022-07-25T13:25:40.873Z,2.62
2022-07-25T13:28:48.357Z,1.55
2022-07-25T13:35:20.142Z,2.75
2022-07-25T13:38:27.445Z,1.98
2022-07-25T13:41:36.556Z,2.95
2022-07-25T13:44:54.365Z,2.90
2022-07-25T13:48:26.814Z,3.58
2022-07-25T13:51:12.978Z,3.42
2022-07-25T13:54:19.257Z,3.95
2022-07-25T13:57:27.186Z,4.62
2022-07-25T14:00:36.259Z,4.22
2022-07-25T14:03:47.320Z,6.50
2022-07-25T14:06:56.453Z,4.60
2022-07-25T14:10:07.082Z,7.80
2022-07-25T14:13:13.716Z,5.72
2022-07-25T14:16:24.413Z,4.80
2022-07-25T14:19:32.393Z,6.90
2022-07-25T14:22:40.697Z,6.47
2022-07-25T14:25:51.687Z,5.42
2022-07-25T14:28:59.903Z,5.37
2022-07-25T14:32:08.822Z,7.83
2022-07-25T14:35:18.242Z,5.45
2022-07-25T14:38:29.729Z,4.97
2022-07-25T14:41:41.827Z,6.10
2022-07-25T14:44:47.876Z,5.25
2022-07-25T14:48:01.403Z,5.28
2022-07-25T14:51:08.079Z,4.70
2022-07-25T14:54:18.469Z,5.62
2022-07-25T14:57:26.462Z,6.08
2022-07-25T15:00:33.610Z,5.90
2022-07-25T15:03:42.001Z,4.05
2022-07-25T15:06:50.977Z,5.83
2022-07-25T15:10:01.844Z,5.08
2022-07-25T15:16:21.849Z,4.33
2022-07-25T15:19:35.714Z,7.28
2022-07-25T15:22:46.634Z,5.05
2022-07-25T15:26:02.708Z,6.28
2022-07-25T15:29:04.587Z,4.53
2022-07-25T15:32:13.149Z,6.00
2022-07-25T15:35:23.483Z,5.60
2022-07-25T15:38:31.381Z,5.05
2022-07-25T15:41:41.144Z,4.97
2022-07-25T15:44:46.938Z,6.30
2022-07-25T15:47:55.840Z,6.10
2022-07-25T15:51:07.555Z,4.97
2022-07-25T15:54:17.397Z,5.35
2022-07-25T15:57:26.546Z,4.37
2022-07-25T16:03:51.937Z,4.60
2022-07-25T16:07:00.715Z,7.45
2022-07-25T16:10:10.698Z,5.22
2022-07-25T16:13:19.474Z,4.80
2022-07-25T16:16:25.399Z,5.37
2022-07-25T16:19:37.198Z,4.47
2022-07-25T16:22:46.627Z,4.70
2022-07-25T16:25:57.055Z,5.15
2022-07-25T16:29:05.929Z,8.10
2022-07-25T16:32:13.714Z,7.60
2022-07-25T16:35:24.495Z,7.47
2022-07-25T16:38:37.559Z,6.15
2022-07-25T16:41:49.039Z,6.20
2022-07-25T16:44:55.683Z,5.05
2022-07-25T16:48:02.350Z,5.50
2022-07-25T16:51:12.188Z,7.80
2022-07-25T16:54:17.869Z,7.75
2022-07-25T16:57:25.429Z,5.35
2022-07-25T17:00:33.346Z,6.47
2022-07-25T17:03:41.787Z,4.65
2022-07-25T17:06:48.301Z,5.80
2022-07-25T17:09:57.461Z,5.15
2022-07-25T17:13:06.943Z,6.30
2022-07-25T17:16:15.576Z,6.05
2022-07-25T17:19:23.529Z,6.47
2022-07-25T17:22:32.671Z,11.75
2022-07-25T17:25:39.656Z,6.08
2022-07-25T17:28:49.761Z,7.15
2022-07-25T17:31:56.611Z,6.60
2022-07-25T17:35:04.402Z,6.58
2022-07-25T17:38:12.125Z,7.30
2022-07-25T17:41:20.792Z,8.23
2022-07-25T17:44:28.986Z,6.92
2022-07-25T17:47:34.120Z,6.22
2022-07-25T17:50:47.849Z,7.78
2022-07-25T17:53:53.572Z,6.40
2022-07-25T17:57:02.952Z,6.87
2022-07-25T18:00:12.316Z,6.97
2022-07-25T18:03:20.473Z,9.38
2022-07-25T18:06:29.859Z,6.85
2022-07-25T18:09:36.183Z,9.15
2022-07-25T18:12:44.052Z,7.08
2022-07-25T18:15:52.133Z,7.08
2022-07-25T18:19:00.930Z,8.08
2022-07-25T18:22:08.430Z,6.92
2022-07-25T18:25:15.467Z,6.75
2022-07-25T18:28:21.935Z,8.05
2022-07-25T18:31:29.658Z,6.78
2022-07-25T18:34:39.509Z,7.22
2022-07-25T18:37:44.730Z,8.43
2022-07-25T18:41:01.762Z,10.18
2022-07-25T18:43:57.890Z,8.83
2022-07-25T18:47:06.304Z,8.40
2022-07-25T18:50:14.599Z,8.00
2022-07-25T18:53:21.499Z,8.98
2022-07-25T18:56:28.651Z,9.53
2022-07-25T18:59:34.547Z,10.60
2022-07-25T19:02:40.182Z,8.93
2022-07-25T19:05:47.331Z,8.15
2022-07-25T19:08:56.633Z,9.63
2022-07-25T19:12:03.964Z,9.60
2022-07-25T19:15:13.748Z,7.33
2022-07-25T19:18:20.246Z,10.55
2022-07-25T19:21:27.461Z,12.82
2022-07-25T19:24:33.874Z,8.90
2022-07-25T19:27:40.850Z,10.65
2022-07-25T19:30:47.621Z,9.90
2022-07-25T19:33:55.041Z,11.25
2022-07-25T19:37:04.378Z,10.78
2022-07-25T19:40:11.149Z,13.35
2022-07-25T19:43:17.440Z,9.15
2022-07-25T19:46:24.141Z,12.25
2022-07-25T19:49:31.794Z,8.98
2022-07-25T19:52:38.776Z,9.23
2022-07-25T19:55:45.272Z,9.68
2022-07-25T19:58:53.363Z,8.88
2022-07-25T20:02:00.143Z,9.03
2022-07-25T20:05:06.958Z,11.83
2022-07-25T20:08:13.834Z,10.45
2022-07-25T20:11:22.872Z,12.00
2022-07-25T20:14:29.907Z,9.75
2022-07-25T20:17:35.660Z,9.58
2022-07-25T20:20:43.054Z,9.60
2022-07-25T20:23:50.139Z,10.53
2022-07-25T20:26:56.411Z,8.80
2022-07-25T20:30:02.652Z,9.95
2022-07-25T20:33:10.005Z,8.20
2022-07-25T20:36:17.246Z,11.28
2022-07-25T20:39:24.022Z,9.13
2022-07-25T20:42:30.425Z,9.73
2022-07-25T20:45:38.331Z,8.05
2022-07-25T20:48:45.739Z,10.25
2022-07-25T20:51:54.603Z,9.50
2022-07-25T20:55:06.872Z,7.30
2022-07-25T20:58:10.745Z,10.23
2022-07-25T21:01:18.818Z,9.23
2022-07-25T21:04:25.956Z,7.05
2022-07-25T21:07:32.489Z,10.23
2022-07-25T21:10:37.879Z,8.65
2022-07-25T21:13:44.419Z,6.60
2022-07-25T21:16:51.173Z,7.45
2022-07-25T21:19:58.489Z,7.35
2022-07-25T21:23:05.789Z,8.58
2022-07-25T21:26:11.954Z,10.95
2022-07-25T21:29:18.114Z,8.93
2022-07-25T21:32:24.695Z,7.70
2022-07-25T21:35:31.043Z,7.10
2022-07-25T21:38:38.241Z,8.40
2022-07-25T21:41:44.811Z,8.18
2022-07-25T21:44:56.806Z,6.78
2022-07-25T21:48:04.103Z,6.20
2022-07-25T21:51:18.723Z,9.08
2022-07-25T21:54:18.068Z,7.80
2022-07-25T21:57:23.923Z,7.05
2022-07-25T22:00:33.405Z,8.90
2022-07-25T22:03:39.557Z,9.28
2022-07-25T22:06:46.005Z,10.68
2022-07-25T22:09:51.887Z,9.15
2022-07-25T22:12:59.690Z,8.68
2022-07-25T22:16:06.575Z,6.50
2022-07-25T22:19:13.947Z,6.58
2022-07-25T22:22:22.662Z,5.87
2022-07-25T22:25:30.155Z,6.78
2022-07-25T22:28:37.517Z,6.90
2022-07-25T22:31:45.701Z,6.58
2022-07-25T22:34:53.247Z,8.83
2022-07-25T22:37:59.437Z,7.28
2022-07-25T22:41:05.579Z,9.78
2022-07-25T22:44:13.251Z,8.18
2022-07-25T22:47:21.085Z,6.28
2022-07-25T22:50:28.278Z,6.05
2022-07-25T22:53:36.285Z,8.55
2022-07-25T22:56:42.449Z,7.70
2022-07-25T22:59:48.089Z,6.10
2022-07-25T23:02:55.220Z,6.28
2022-07-25T23:06:02.617Z,8.73
2022-07-25T23:09:09.139Z,5.92
2022-07-25T23:12:17.170Z,8.30
2022-07-25T23:15:24.639Z,7.08
2022-07-25T23:18:31.953Z,6.53
2022-07-25T23:21:39.044Z,7.28
2022-07-25T23:24:45.294Z,11.97
2022-07-25T23:27:55.152Z,6.50
2022-07-25T23:31:01.514Z,9.00
2022-07-25T23:34:09.515Z,6.37
2022-07-25T23:40:39.840Z,6.80
2022-07-25T23:43:57.491Z,8.83
2022-07-25T23:46:54.380Z,8.78
2022-07-25T23:49:59.697Z,6.00
2022-07-25T23:53:06.444Z,5.75
2022-07-25T23:56:16.152Z,6.12
2022-07-25T23:59:22.883Z,7.60
